Time;durP1;ratioP1;P1;durP2;ratioP2;P2;SDS_P1;SDS_P2;PMS_P1;PMS_P2;Temp;Humidity;BMP_temperature;BMP_pressure;BME280_temperature;BME280_humidity;BME280_pressure;Samples;Min_cycle;Max_cycle;Signal;HPM_P1;HPM_P2
2024/03/27 00:02:15;;;;;;;24.00;12.88;;;15.10;97.30;;;;;;5092998;28;20040;-70
2024/03/27 00:04:41;;;;;;;24.80;13.63;;;15.00;97.30;;;;;;5093137;28;20056;-70
2024/03/27 00:07:07;;;;;;;42.08;14.35;;;15.10;97.30;;;;;;5093000;28;20063;-70
2024/03/27 00:09:33;;;;;;;23.75;12.95;;;15.00;97.40;;;;;;5092993;28;20028;-70
2024/03/27 00:11:58;;;;;;;28.58;12.55;;;15.10;97.40;;;;;;5092932;28;20043;-69
2024/03/27 00:14:24;;;;;;;22.85;12.88;;;15.10;97.40;;;;;;5092723;28;20036;-69
2024/03/27 00:16:50;;;;;;;20.55;12.52;;;15.00;97.40;;;;;;5092724;28;20036;-69
2024/03/27 00:19:16;;;;;;;23.55;11.70;;;15.00;97.50;;;;;;5092511;28;20052;-70
2024/03/27 00:21:41;;;;;;;26.98;12.80;;;15.00;97.40;;;;;;5092609;28;20098;-70
2024/03/27 00:24:07;;;;;;;22.50;10.80;;;15.00;97.40;;;;;;5092604;28;20036;-70
2024/03/27 00:26:33;;;;;;;30.13;12.30;;;15.10;97.50;;;;;;5092505;28;20514;-70
2024/03/27 00:29:00;;;;;;;22.83;10.77;;;15.10;97.30;;;;;;5092468;28;20106;-70
2024/03/27 00:31:27;;;;;;;21.42;12.98;;;15.10;97.40;;;;;;5092299;28;20036;-69
2024/03/27 00:33:53;;;;;;;23.17;12.70;;;15.20;97.30;;;;;;5092369;28;20043;-70
2024/03/27 00:36:18;;;;;;;23.25;12.27;;;15.10;97.20;;;;;;5092789;28;20039;-70
2024/03/27 00:38:44;;;;;;;25.92;13.15;;;15.20;97.30;;;;;;5092437;28;20040;-69
2024/03/27 00:41:10;;;;;;;19.85;11.18;;;15.10;97.30;;;;;;5092255;28;20044;-70
2024/03/27 00:43:36;;;;;;;21.73;13.18;;;15.10;97.30;;;;;;5092280;28;20032;-69
2024/03/27 00:46:03;;;;;;;23.25;13.00;;;15.10;97.50;;;;;;5092095;28;20032;-70
2024/03/27 00:48:30;;;;;;;27.85;13.68;;;15.10;97.40;;;;;;5092223;28;20047;-70
2024/03/27 00:50:56;;;;;;;21.20;12.60;;;15.00;97.30;;;;;;5092240;28;20503;-69
2024/03/27 00:53:22;;;;;;;20.98;12.95;;;14.90;97.20;;;;;;5092312;28;20036;-70
2024/03/27 00:55:58;;;;;;;24.90;13.48;;;14.90;97.30;;;;;;5091905;28;20115;-70
2024/03/27 00:58:25;;;;;;;22.25;12.55;;;14.80;97.00;;;;;;5091937;28;20040;-69
2024/03/27 01:00:50;;;;;;;20.60;12.52;;;14.80;97.40;;;;;;5091753;28;20056;-69
2024/03/27 01:03:16;;;;;;;22.73;12.88;;;14.80;97.20;;;;;;5092276;28;20043;-69
2024/03/27 01:05:43;;;;;;;20.95;13.73;;;14.80;97.30;;;;;;5091985;28;20032;-69
2024/03/27 01:08:09;;;;;;;21.70;12.80;;;14.80;97.30;;;;;;5091947;28;20036;-70
2024/03/27 01:10:37;;;;;;;25.20;13.30;;;14.80;97.30;;;;;;5092348;28;20122;-70
2024/03/27 01:13:03;;;;;;;23.15;14.27;;;14.80;97.30;;;;;;5092377;28;20032;-70
2024/03/27 01:15:29;;;;;;;23.83;13.60;;;14.80;97.20;;;;;;5089179;28;20490;-70
2024/03/27 01:17:55;;;;;;;23.02;13.65;;;14.80;97.30;;;;;;5091861;28;20048;-69
2024/03/27 01:20:22;;;;;;;25.25;13.55;;;14.80;97.30;;;;;;5092144;28;20044;-71
2024/03/27 01:22:48;;;;;;;22.17;12.55;;;14.80;97.30;;;;;;5073949;28;20096;-70
2024/03/27 01:25:15;;;;;;;23.48;13.80;;;14.80;97.30;;;;;;5092083;28;20024;-70
2024/03/27 01:27:41;;;;;;;23.55;14.18;;;14.80;97.30;;;;;;5092189;28;20032;-69
2024/03/27 01:30:07;;;;;;;25.30;12.45;;;14.80;97.30;;;;;;5092101;28;20043;-69
2024/03/27 01:32:34;;;;;;;23.77;14.15;;;14.80;97.30;;;;;;5091782;28;20032;-70
2024/03/27 01:34:59;;;;;;;20.90;13.27;;;14.80;97.30;;;;;;5092100;28;20032;-69
2024/03/27 01:37:25;;;;;;;21.52;12.80;;;14.80;97.30;;;;;;5091952;28;20099;-69
2024/03/27 01:39:51;;;;;;;22.33;13.07;;;14.70;97.20;;;;;;5091943;28;20135;-70
2024/03/27 01:42:17;;;;;;;19.80;12.27;;;14.70;97.30;;;;;;5091746;28;20040;-69
2024/03/27 01:44:43;;;;;;;23.85;14.00;;;14.70;97.30;;;;;;5091861;28;20051;-69
2024/03/27 01:47:11;;;;;;;21.67;13.23;;;14.70;97.30;;;;;;5091671;28;20040;-70
2024/03/27 01:49:39;;;;;;;21.83;13.27;;;14.70;97.50;;;;;;5093580;28;20107;-70
2024/03/27 01:52:05;;;;;;;26.15;13.73;;;14.70;97.40;;;;;;5095446;28;20072;-69
2024/03/27 01:54:31;;;;;;;22.55;14.25;;;14.60;97.20;;;;;;5095528;28;20495;-70
2024/03/27 01:56:58;;;;;;;26.33;14.55;;;14.60;97.40;;;;;;5095211;28;20089;-70
2024/03/27 01:59:25;;;;;;;26.45;15.25;;;14.60;97.50;;;;;;5095465;28;20024;-70
2024/03/27 02:01:52;;;;;;;26.70;14.68;;;14.60;97.40;;;;;;5094926;28;20048;-69
2024/03/27 02:04:19;;;;;;;23.90;13.82;;;14.60;97.40;;;;;;5095202;28;20085;-69
2024/03/27 02:06:45;;;;;;;28.05;14.52;;;14.60;97.40;;;;;;5095063;28;20040;-69
2024/03/27 02:09:11;;;;;;;25.02;14.07;;;14.60;97.40;;;;;;5095406;28;20028;-69
2024/03/27 02:11:37;;;;;;;21.38;14.30;;;14.60;97.40;;;;;;5076688;28;20670;-69
2024/03/27 02:14:02;;;;;;;22.80;13.57;;;14.60;97.40;;;;;;5094708;28;20043;-68
2024/03/27 02:16:28;;;;;;;26.50;14.00;;;14.60;97.40;;;;;;5076599;28;20119;-69
2024/03/27 02:18:54;;;;;;;23.00;14.02;;;14.60;97.30;;;;;;5094783;28;20040;-69
2024/03/27 02:21:20;;;;;;;21.20;13.82;;;14.50;97.30;;;;;;5094894;28;20044;-70
2024/03/27 02:23:53;;;;;;;24.42;14.10;;;14.50;97.60;;;;;;5094879;28;20081;-70
2024/03/27 02:26:32;;;;;;;22.55;13.68;;;14.50;97.40;;;;;;5094817;28;20054;-69
2024/03/27 02:28:58;;;;;;;22.75;12.50;;;14.50;97.10;;;;;;5094591;28;20082;-69
2024/03/27 02:31:24;;;;;;;23.40;13.23;;;14.50;97.50;;;;;;5094620;28;20434;-70
2024/03/27 02:33:49;;;;;;;25.33;13.48;;;14.50;97.50;;;;;;5094707;28;20032;-71
2024/03/27 02:36:15;;;;;;;23.83;12.13;;;14.50;97.40;;;;;;5094533;28;20035;-70
2024/03/27 02:38:41;;;;;;;22.48;12.40;;;14.50;97.50;;;;;;5094747;28;20028;-69
2024/03/27 02:41:06;;;;;;;24.40;12.70;;;14.50;97.40;;;;;;5094317;28;20495;-71
2024/03/27 02:43:32;;;;;;;24.20;12.63;;;14.50;97.40;;;;;;5076224;28;20060;-70
2024/03/27 02:45:58;;;;;;;23.02;12.60;;;14.40;97.40;;;;;;5094197;28;20039;-70
2024/03/27 02:48:23;;;;;;;24.17;12.98;;;14.50;97.50;;;;;;5094262;28;20036;-69
2024/03/27 02:50:49;;;;;;;28.52;12.55;;;14.40;97.40;;;;;;5094329;28;20032;-69
2024/03/27 02:53:15;;;;;;;21.77;12.40;;;14.40;97.40;;;;;;5094195;28;20352;-70
2024/03/27 02:55:41;;;;;;;25.10;12.70;;;14.40;97.40;;;;;;5075948;28;20059;-70
2024/03/27 02:58:06;;;;;;;25.05;14.02;;;14.50;97.50;;;;;;5094318;28;20043;-71
2024/03/27 03:00:32;;;;;;;21.10;12.98;;;14.40;97.70;;;;;;5092747;28;20040;-69
2024/03/27 03:02:58;;;;;;;23.58;12.45;;;14.40;97.50;;;;;;5093988;28;20483;-69
2024/03/27 03:05:23;;;;;;;23.08;12.90;;;14.40;97.50;;;;;;5093762;28;20361;-69
2024/03/27 03:07:49;;;;;;;23.15;12.82;;;14.50;97.50;;;;;;5093937;28;20467;-70
2024/03/27 03:10:15;;;;;;;25.10;13.27;;;14.50;97.50;;;;;;5093898;28;20036;-70
2024/03/27 03:12:41;;;;;;;23.98;12.48;;;14.50;97.40;;;;;;5093907;28;20032;-69
2024/03/27 03:15:07;;;;;;;28.50;13.13;;;14.50;97.50;;;;;;5093634;28;20048;-69
2024/03/27 03:17:33;;;;;;;30.38;13.70;;;14.40;97.40;;;;;;5093202;28;20085;-69
2024/03/27 03:19:58;;;;;;;23.20;12.52;;;14.40;97.80;;;;;;5093517;28;20035;-69
2024/03/27 03:22:24;;;;;;;28.17;12.88;;;14.40;97.80;;;;;;5093537;28;20381;-70
2024/03/27 03:24:50;;;;;;;22.88;11.20;;;14.40;97.60;;;;;;5093459;28;20036;-70
2024/03/27 03:27:18;;;;;;;22.90;11.50;;;14.40;97.50;;;;;;5093659;28;20036;-70
2024/03/27 03:29:44;;;;;;;24.40;12.32;;;14.40;97.50;;;;;;5093517;28;20028;-70
2024/03/27 03:32:10;;;;;;;26.55;11.02;;;14.40;97.50;;;;;;5093446;28;20472;-69
2024/03/27 03:34:36;;;;;;;24.02;11.27;;;14.40;97.50;;;;;;5093302;28;20043;-69
2024/03/27 03:37:01;;;;;;;24.17;11.77;;;14.40;97.60;;;;;;5093268;28;20044;-71
2024/03/27 03:39:27;;;;;;;27.98;11.15;;;14.50;97.50;;;;;;5093195;28;20029;-70
2024/03/27 03:41:52;;;;;;;27.00;11.20;;;14.40;97.50;;;;;;5093274;28;20520;-69
2024/03/27 03:44:18;;;;;;;21.13;10.68;;;14.50;97.60;;;;;;5093026;28;20036;-71
2024/03/27 03:46:44;;;;;;;26.08;11.35;;;14.50;97.50;;;;;;5093085;28;20484;-69
2024/03/27 03:49:10;;;;;;;23.67;10.77;;;14.50;97.60;;;;;;5093102;28;20115;-70
2024/03/27 03:51:36;;;;;;;31.08;11.00;;;14.60;97.60;;;;;;5093014;28;20028;-69
2024/03/27 03:54:04;;;;;;;25.73;9.77;;;14.60;97.50;;;;;;5093054;28;20115;-69
2024/03/27 03:56:30;;;;;;;29.15;10.77;;;14.70;97.50;;;;;;5092726;28;20036;-69
2024/03/27 03:58:55;;;;;;;23.50;9.75;;;14.70;97.30;;;;;;5092842;28;20039;-69
2024/03/27 04:01:21;;;;;;;30.85;10.13;;;14.80;97.40;;;;;;5092800;28;20433;-69
2024/03/27 04:03:47;;;;;;;27.42;8.30;;;14.90;97.30;;;;;;5092812;28;20055;-69
2024/03/27 04:06:12;;;;;;;28.30;8.68;;;14.90;97.30;;;;;;5092863;28;20063;-69
2024/03/27 04:08:38;;;;;;;27.27;8.10;;;14.90;97.30;;;;;;5092981;28;20024;-70
2024/03/27 04:11:04;;;;;;;33.75;9.80;;;15.00;97.30;;;;;;5092573;28;20033;-69
2024/03/27 04:13:29;;;;;;;30.90;8.32;;;15.00;97.30;;;;;;5092447;28;20337;-70
2024/03/27 04:15:55;;;;;;;21.67;7.30;;;15.00;97.20;;;;;;5093008;28;20044;-69
2024/03/27 04:18:21;;;;;;;27.30;7.72;;;15.00;97.20;;;;;;5100257;22;20507;-70
2024/03/27 04:20:46;;;;;;;27.88;7.13;;;15.10;97.30;;;;;;5092427;28;20405;-70
2024/03/27 04:23:12;;;;;;;25.10;7.22;;;15.10;97.20;;;;;;5074471;28;20510;-69
2024/03/27 04:25:38;;;;;;;33.47;7.20;;;15.20;97.30;;;;;;5092538;28;20040;-69
2024/03/27 04:28:04;;;;;;;29.83;7.40;;;15.30;97.20;;;;;;5092520;28;20063;-69
2024/03/27 04:30:30;;;;;;;32.33;7.85;;;15.30;97.20;;;;;;5092526;28;20028;-70
2024/03/27 04:32:56;;;;;;;33.90;7.28;;;15.30;97.20;;;;;;5092594;28;20119;-69
2024/03/27 04:35:22;;;;;;;28.63;8.00;;;15.40;97.30;;;;;;5092705;28;20063;-69
2024/03/27 04:37:48;;;;;;;32.28;7.50;;;15.40;97.20;;;;;;5092593;28;20032;-69
2024/03/27 04:40:13;;;;;;;35.30;7.72;;;15.40;97.30;;;;;;5092508;28;20036;-70
2024/03/27 04:42:40;;;;;;;30.23;8.40;;;15.40;97.30;;;;;;5092458;28;20502;-69
2024/03/27 04:45:10;;;;;;;27.80;7.90;;;15.40;97.40;;;;;;5092140;28;20352;-69
2024/03/27 04:47:36;;;;;;;29.65;7.35;;;15.40;97.30;;;;;;5092278;28;20024;-69
2024/03/27 04:50:03;;;;;;;34.80;7.68;;;15.40;97.50;;;;;;5092531;28;20036;-69
2024/03/27 04:52:29;;;;;;;31.73;8.07;;;15.40;97.40;;;;;;5092376;28;20024;-70
2024/03/27 04:54:55;;;;;;;32.20;7.80;;;15.40;97.40;;;;;;5092221;28;20111;-69
2024/03/27 04:57:20;;;;;;;37.10;7.25;;;15.40;97.50;;;;;;5091046;28;20043;-69
2024/03/27 04:59:46;;;;;;;25.83;7.13;;;15.40;97.50;;;;;;5092251;28;20024;-71
2024/03/27 05:02:12;;;;;;;27.75;6.88;;;15.40;97.40;;;;;;5092794;28;20036;-69
2024/03/27 05:04:37;;;;;;;36.00;8.18;;;15.40;97.40;;;;;;5092606;28;20036;-70
2024/03/27 05:07:04;;;;;;;28.30;6.47;;;15.50;97.50;;;;;;5092354;28;20531;-70
2024/03/27 05:09:30;;;;;;;30.63;7.47;;;15.50;97.50;;;;;;5092264;28;20047;-69
2024/03/27 05:12:00;;;;;;;35.30;7.97;;;15.50;97.50;;;;;;5091931;28;20384;-70
2024/03/27 05:14:26;;;;;;;32.80;7.35;;;15.50;97.20;;;;;;5092182;28;20036;-70
2024/03/27 05:16:52;;;;;;;34.70;8.73;;;15.50;97.50;;;;;;5092516;28;20047;-70
2024/03/27 05:19:17;;;;;;;30.88;7.50;;;15.60;97.50;;;;;;5092147;28;20044;-69
2024/03/27 05:21:46;;;;;;;30.17;7.97;;;15.60;97.50;;;;;;5092080;28;20071;-70
2024/03/27 05:24:12;;;;;;;40.08;8.85;;;15.60;97.60;;;;;;5093344;28;20047;-70
2024/03/27 05:26:38;;;;;;;30.02;7.65;;;15.60;97.50;;;;;;5095880;28;20071;-69
2024/03/27 05:29:04;;;;;;;31.30;7.43;;;15.60;97.50;;;;;;5096373;28;20032;-70
2024/03/27 05:31:30;;;;;;;36.42;9.18;;;15.70;97.60;;;;;;5096125;28;20036;-70
2024/03/27 05:33:56;;;;;;;39.15;8.88;;;15.70;97.70;;;;;;5095864;28;20542;-70
2024/03/27 05:36:22;;;;;;;38.83;8.23;;;15.70;97.60;;;;;;5095485;28;20516;-70
2024/03/27 05:38:48;;;;;;;36.05;9.07;;;15.70;97.60;;;;;;5095761;28;20035;-68
2024/03/27 05:41:14;;;;;;;37.95;9.35;;;15.70;97.60;;;;;;5095739;28;20040;-70
2024/03/27 05:43:39;;;;;;;39.67;9.27;;;15.70;97.70;;;;;;5095632;28;20107;-70
2024/03/27 05:46:05;;;;;;;39.72;8.20;;;15.70;97.70;;;;;;5095348;28;20547;-70
2024/03/27 05:48:32;;;;;;;33.35;8.40;;;15.70;97.80;;;;;;5095731;28;20036;-69
2024/03/27 05:50:58;;;;;;;28.40;8.07;;;15.70;97.90;;;;;;5094137;28;20036;-69
2024/03/27 05:53:23;;;;;;;32.75;8.23;;;15.80;97.80;;;;;;5095344;28;20441;-70
2024/03/27 05:55:57;;;;;;;33.63;8.10;;;15.80;97.90;;;;;;5095309;28;20103;-70
2024/03/27 05:58:23;;;;;;;34.78;9.52;;;15.80;97.90;;;;;;5095416;28;20062;-70
2024/03/27 06:00:48;;;;;;;37.92;9.05;;;15.80;98.00;;;;;;5095386;28;20036;-70
2024/03/27 06:03:14;;;;;;;35.35;8.38;;;15.80;98.00;;;;;;5095244;28;20483;-70
2024/03/27 06:05:41;;;;;;;36.92;9.10;;;15.80;98.00;;;;;;5095102;28;20145;-69
2024/03/27 06:08:07;;;;;;;41.80;10.20;;;15.80;98.10;;;;;;5095027;28;20051;-70
2024/03/27 06:10:33;;;;;;;50.53;10.40;;;15.80;97.90;;;;;;5095111;28;20127;-71
2024/03/27 06:13:06;;;;;;;39.63;11.13;;;15.80;98.10;;;;;;5095025;28;20067;-70
2024/03/27 06:15:32;;;;;;;45.60;11.68;;;15.80;98.10;;;;;;5094708;28;20509;-69
2024/03/27 06:18:01;;;;;;;47.17;11.60;;;15.80;98.10;;;;;;5094767;28;20059;-70
2024/03/27 06:20:27;;;;;;;42.22;10.85;;;15.80;98.00;;;;;;5094678;28;20036;-70
2024/03/27 06:22:54;;;;;;;36.65;9.85;;;15.90;98.10;;;;;;5094692;28;20046;-71
2024/03/27 06:25:20;;;;;;;41.85;9.90;;;15.90;98.20;;;;;;5094754;28;20081;-70
2024/03/27 06:27:45;;;;;;;41.30;10.15;;;15.90;98.10;;;;;;5095103;28;20032;-70
2024/03/27 06:30:12;;;;;;;35.05;9.50;;;15.90;98.10;;;;;;5094664;28;20035;-70
2024/03/27 06:32:39;;;;;;;28.63;9.02;;;15.90;98.00;;;;;;5094537;28;20109;-70
2024/03/27 06:35:06;;;;;;;38.33;9.98;;;15.90;98.10;;;;;;5094380;28;20034;-71
2024/03/27 06:37:32;;;;;;;39.22;10.10;;;15.90;98.10;;;;;;5094351;28;20043;-69
2024/03/27 06:39:59;;;;;;;30.27;10.02;;;15.90;98.10;;;;;;5094370;28;20036;-70
2024/03/27 06:42:24;;;;;;;32.80;10.15;;;15.90;98.20;;;;;;5094554;28;20032;-70
2024/03/27 06:44:50;;;;;;;34.45;9.30;;;15.90;98.10;;;;;;5094384;28;20111;-71
2024/03/27 06:47:19;;;;;;;30.15;8.05;;;15.90;98.30;;;;;;5094307;28;20468;-70
2024/03/27 06:49:48;;;;;;;29.92;8.23;;;15.90;98.20;;;;;;5094388;28;20090;-70
2024/03/27 06:52:14;;;;;;;30.58;9.20;;;15.90;98.30;;;;;;5094518;28;20094;-71
2024/03/27 06:54:39;;;;;;;31.90;7.78;;;15.90;98.20;;;;;;5094098;28;20032;-71
2024/03/27 06:57:05;;;;;;;32.38;8.32;;;15.90;98.20;;;;;;5094430;28;20119;-70
2024/03/27 06:59:31;;;;;;;32.45;8.50;;;16.00;98.30;;;;;;5094261;28;19970;-70
2024/03/27 07:01:57;;;;;;;26.20;8.15;;;16.00;98.20;;;;;;5093947;28;20388;-70
2024/03/27 07:04:22;;;;;;;35.70;8.95;;;16.00;98.30;;;;;;5093727;28;20020;-70
2024/03/27 07:06:48;;;;;;;43.22;8.85;;;16.00;98.30;;;;;;5093974;28;20383;-69
2024/03/27 07:09:14;;;;;;;35.38;10.27;;;16.00;98.30;;;;;;5094202;28;20032;-71
2024/03/27 07:11:40;;;;;;;29.65;8.07;;;16.00;98.50;;;;;;5093910;28;20495;-71
2024/03/27 07:14:05;;;;;;;31.40;8.68;;;16.10;98.40;;;;;;5093629;28;20028;-70
2024/03/27 07:16:31;;;;;;;34.15;8.57;;;16.10;98.40;;;;;;5093948;28;20498;-70
2024/03/27 07:18:57;;;;;;;29.48;8.02;;;16.10;98.30;;;;;;5093335;28;20055;-70
2024/03/27 07:21:22;;;;;;;29.63;7.93;;;16.20;98.30;;;;;;5093590;28;20101;-71
2024/03/27 07:23:48;;;;;;;23.50;7.15;;;16.30;98.30;;;;;;5093913;28;20031;-70
2024/03/27 07:26:14;;;;;;;33.33;6.43;;;16.30;98.10;;;;;;5093809;28;20442;-70
2024/03/27 07:28:40;;;;;;;30.65;6.95;;;16.30;98.10;;;;;;5093517;28;20030;-71
2024/03/27 07:31:05;;;;;;;25.50;6.63;;;16.30;98.00;;;;;;5093777;28;20043;-70
2024/03/27 07:33:31;;;;;;;26.27;6.65;;;16.40;98.00;;;;;;5093164;28;20033;-70
2024/03/27 07:35:57;;;;;;;30.10;7.30;;;16.40;98.00;;;;;;5093225;28;20035;-71
2024/03/27 07:38:24;;;;;;;36.72;7.80;;;16.40;97.90;;;;;;5093290;28;20032;-69
2024/03/27 07:40:50;;;;;;;24.88;6.82;;;16.50;97.90;;;;;;5092916;28;20040;-70
2024/03/27 07:43:16;;;;;;;31.13;7.47;;;16.50;97.70;;;;;;5093127;28;20028;-70
2024/03/27 07:45:42;;;;;;;28.80;7.22;;;16.50;97.70;;;;;;5093132;28;20032;-70
2024/03/27 07:48:11;;;;;;;25.77;6.90;;;16.50;97.60;;;;;;5092383;28;20035;-71
2024/03/27 07:50:36;;;;;;;25.73;6.68;;;16.50;97.60;;;;;;5093213;28;20107;-70
2024/03/27 07:53:02;;;;;;;30.40;6.55;;;16.50;97.60;;;;;;5093193;28;20517;-70
2024/03/27 07:55:28;;;;;;;28.95;7.57;;;16.40;97.50;;;;;;5092945;28;20495;-70
2024/03/27 07:57:54;;;;;;;28.90;7.75;;;16.40;97.50;;;;;;5092700;28;20435;-70
2024/03/27 08:00:20;;;;;;;26.58;6.82;;;16.40;97.50;;;;;;5074875;28;20039;-71
2024/03/27 08:02:45;;;;;;;26.13;6.30;;;16.40;97.50;;;;;;5092813;28;20058;-70
2024/03/27 08:05:11;;;;;;;27.27;6.65;;;16.40;97.50;;;;;;5092964;28;20028;-70
2024/03/27 08:07:37;;;;;;;25.85;7.35;;;16.40;97.40;;;;;;5092636;28;20043;-69
2024/03/27 08:10:03;;;;;;;24.52;7.55;;;16.40;97.40;;;;;;5093057;28;20082;-70
2024/03/27 08:12:30;;;;;;;36.15;8.32;;;16.40;97.40;;;;;;5092591;28;20028;-70
2024/03/27 08:14:56;;;;;;;37.35;8.18;;;16.50;97.60;;;;;;5092853;28;20036;-71
2024/03/27 08:17:22;;;;;;;21.52;6.25;;;16.50;97.50;;;;;;5092577;28;20115;-71
2024/03/27 08:19:47;;;;;;;24.95;6.60;;;16.50;97.40;;;;;;5092250;28;20097;-69
2024/03/27 08:22:13;;;;;;;23.38;7.13;;;16.60;97.30;;;;;;5092388;28;20109;-70
2024/03/27 08:24:40;;;;;;;22.02;6.55;;;16.60;97.10;;;;;;5092914;28;20072;-70
2024/03/27 08:27:06;;;;;;;27.30;7.05;;;16.70;97.10;;;;;;5093118;28;20474;-70
2024/03/27 08:29:33;;;;;;;27.63;7.72;;;16.70;97.20;;;;;;5074709;28;20464;-71
2024/03/27 08:31:59;;;;;;;28.27;7.75;;;16.70;97.10;;;;;;5092595;28;20121;-70
2024/03/27 08:34:25;;;;;;;34.25;8.10;;;16.70;97.10;;;;;;5092602;28;20071;-69
2024/03/27 08:36:51;;;;;;;34.08;8.05;;;16.70;97.20;;;;;;5092604;28;20071;-71
2024/03/27 08:39:17;;;;;;;31.40;8.63;;;16.70;97.20;;;;;;5092819;28;20572;-69
2024/03/27 08:41:47;;;;;;;32.80;9.02;;;16.70;97.20;;;;;;5092680;28;20148;-71
2024/03/27 08:44:13;;;;;;;28.95;8.63;;;16.70;97.30;;;;;;5092381;28;20032;-70
2024/03/27 08:46:39;;;;;;;33.35;8.18;;;16.70;97.40;;;;;;5092506;28;20091;-71
2024/03/27 08:49:05;;;;;;;37.42;9.60;;;16.70;97.30;;;;;;5091693;28;20052;-71
2024/03/27 08:51:31;;;;;;;34.45;8.80;;;16.70;97.30;;;;;;5092402;28;20032;-70
2024/03/27 08:53:56;;;;;;;46.75;10.25;;;16.70;97.50;;;;;;5074015;28;20372;-70
2024/03/27 08:56:22;;;;;;;36.90;9.50;;;16.60;97.50;;;;;;5092175;28;20039;-69
2024/03/27 08:58:48;;;;;;;43.63;9.90;;;16.60;97.50;;;;;;5094714;28;20031;-69
2024/03/27 09:01:18;;;;;;;37.58;8.82;;;16.70;97.50;;;;;;5096461;28;20495;-71
2024/03/27 09:03:46;;;;;;;36.55;8.68;;;16.70;97.60;;;;;;5096836;28;20090;-71
2024/03/27 09:06:13;;;;;;;46.10;10.52;;;16.70;97.50;;;;;;5096590;28;20032;-71
2024/03/27 09:08:38;;;;;;;38.13;9.02;;;16.70;97.50;;;;;;5096470;28;20035;-71
2024/03/27 09:11:06;;;;;;;41.60;10.15;;;16.70;97.40;;;;;;5096224;28;20036;-70
2024/03/27 09:13:32;;;;;;;36.95;9.25;;;16.70;97.40;;;;;;5095940;28;20031;-71
2024/03/27 09:16:01;;;;;;;42.65;9.77;;;16.70;97.30;;;;;;5095697;28;20040;-70
2024/03/27 09:18:27;;;;;;;37.08;9.63;;;16.70;97.40;;;;;;5096063;28;20127;-70
2024/03/27 09:20:58;;;;;;;45.70;10.55;;;16.70;97.40;;;;;;5095984;28;20040;-70
2024/03/27 09:23:24;;;;;;;43.67;10.13;;;16.70;97.40;;;;;;5096256;28;20032;-71
2024/03/27 09:25:57;;;;;;;43.50;9.80;;;16.70;97.40;;;;;;5095930;28;20035;-71
2024/03/27 09:28:24;;;;;;;33.38;8.00;;;16.70;97.20;;;;;;5094643;28;20040;-70
2024/03/27 09:30:50;;;;;;;31.55;8.55;;;16.60;97.50;;;;;;5077600;28;20047;-70
2024/03/27 09:33:16;;;;;;;44.42;9.05;;;16.50;97.50;;;;;;5096190;28;20106;-70
2024/03/27 09:35:44;;;;;;;41.72;8.20;;;16.50;97.50;;;;;;5095842;28;20036;-71
2024/03/27 09:38:10;;;;;;;40.13;8.10;;;16.50;97.70;;;;;;5095979;28;20055;-70
2024/03/27 09:40:40;;;;;;;38.28;8.35;;;16.50;97.60;;;;;;5095627;28;20502;-69
2024/03/27 09:43:06;;;;;;;28.60;7.57;;;16.50;97.60;;;;;;5095683;28;20090;-70
2024/03/27 09:45:34;;;;;;;25.20;7.43;;;16.50;97.70;;;;;;5095753;28;20496;-70
2024/03/27 09:48:01;;;;;;;30.25;6.85;;;16.50;97.70;;;;;;5095481;28;20064;-71
2024/03/27 09:50:31;;;;;;;34.63;8.05;;;16.40;97.60;;;;;;5077376;28;20383;-70
2024/03/27 09:52:58;;;;;;;36.22;7.95;;;16.40;97.70;;;;;;5095207;28;20039;-70
2024/03/27 09:55:24;;;;;;;36.25;8.45;;;16.40;97.70;;;;;;5095205;28;20445;-71
2024/03/27 09:57:49;;;;;;;17.92;4.60;;;16.30;97.70;;;;;;5094919;28;20021;-71
2024/03/27 10:00:15;;;;;;;11.20;2.53;;;16.10;97.50;;;;;;5095166;28;20151;-71
2024/03/27 10:02:41;;;;;;;11.55;2.05;;;15.80;97.40;;;;;;5095436;28;20078;-71
2024/03/27 10:05:10;;;;;;;11.77;1.83;;;15.50;97.20;;;;;;5095383;28;20106;-71
2024/03/27 10:07:37;;;;;;;6.18;1.70;;;15.20;97.10;;;;;;5095117;28;20036;-70
2024/03/27 10:10:04;;;;;;;9.40;1.67;;;15.00;97.10;;;;;;5094385;28;20114;-70
2024/03/27 10:12:29;;;;;;;9.55;1.63;;;14.70;96.80;;;;;;5094685;28;20040;-71
2024/03/27 10:14:56;;;;;;;6.85;1.27;;;14.60;96.70;;;;;;5095062;28;20035;-70
2024/03/27 10:17:21;;;;;;;9.85;1.83;;;14.50;96.80;;;;;;5095007;28;20042;-71
2024/03/27 10:19:47;;;;;;;11.18;2.63;;;14.30;96.40;;;;;;5094944;28;20050;-71
2024/03/27 10:22:13;;;;;;;10.65;2.10;;;14.20;96.40;;;;;;5095027;28;20122;-71
2024/03/27 10:24:38;;;;;;;9.48;2.20;;;14.10;96.40;;;;;;5094929;28;20024;-71
2024/03/27 10:27:04;;;;;;;6.63;1.73;;;14.10;96.50;;;;;;5094726;28;20024;-70
2024/03/27 10:29:30;;;;;;;11.15;1.63;;;14.10;96.50;;;;;;5094822;28;20033;-71
2024/03/27 10:31:57;;;;;;;8.82;1.75;;;14.10;96.50;;;;;;5094591;28;20033;-71
2024/03/27 10:34:22;;;;;;;12.48;2.45;;;14.10;96.40;;;;;;5094688;28;20127;-70
2024/03/27 10:36:52;;;;;;;14.13;2.28;;;14.10;96.10;;;;;;5094336;28;20115;-70
2024/03/27 10:39:22;;;;;;;9.25;2.05;;;14.10;96.00;;;;;;5094470;28;20038;-70
2024/03/27 10:41:50;;;;;;;13.98;2.28;;;14.20;96.20;;;;;;5093933;28;20122;-71
2024/03/27 10:44:17;;;;;;;14.48;2.20;;;14.10;95.80;;;;;;5094082;28;20400;-71
2024/03/27 10:46:47;;;;;;;13.00;1.77;;;14.10;95.90;;;;;;5094399;28;20032;-70
2024/03/27 10:49:13;;;;;;;9.82;1.50;;;14.00;95.90;;;;;;5094158;28;20036;-70
2024/03/27 10:51:39;;;;;;;7.63;1.65;;;13.90;95.90;;;;;;5094237;28;20036;-72
2024/03/27 10:54:06;;;;;;;7.57;1.50;;;13.90;96.00;;;;;;5093910;28;20388;-71
2024/03/27 10:56:32;;;;;;;9.05;1.67;;;14.00;95.90;;;;;;5094125;28;20029;-70
2024/03/27 10:58:59;;;;;;;9.73;1.77;;;14.10;95.50;;;;;;5094108;28;20028;-70
2024/03/27 11:01:24;;;;;;;9.13;1.50;;;14.10;95.30;;;;;;5093840;28;20032;-71
2024/03/27 11:03:51;;;;;;;8.63;1.80;;;14.30;95.20;;;;;;5093863;28;20038;-71
2024/03/27 11:06:18;;;;;;;11.60;1.80;;;14.30;94.90;;;;;;5093926;28;20119;-71
2024/03/27 11:08:44;;;;;;;8.65;2.00;;;14.40;94.80;;;;;;5092475;28;20032;-71
2024/03/27 11:11:14;;;;;;;8.93;2.00;;;14.30;94.80;;;;;;5094042;28;20422;-71
2024/03/27 11:13:47;;;;;;;9.82;2.15;;;14.40;94.80;;;;;;5093651;28;20165;-70
2024/03/27 11:16:13;;;;;;;6.18;1.88;;;14.40;94.70;;;;;;5093642;28;20056;-71
2024/03/27 11:18:44;;;;;;;10.85;1.98;;;14.40;94.80;;;;;;5093411;28;20388;-71
2024/03/27 11:21:11;;;;;;;6.55;1.70;;;14.40;94.60;;;;;;5093085;28;20403;-71
2024/03/27 11:23:38;;;;;;;7.70;1.67;;;14.40;94.60;;;;;;5093310;28;20037;-71
2024/03/27 11:26:04;;;;;;;6.40;1.38;;;14.50;94.30;;;;;;5093664;28;20050;-71
2024/03/27 11:28:31;;;;;;;5.63;1.52;;;14.50;93.90;;;;;;5093845;28;20089;-71
2024/03/27 11:30:58;;;;;;;6.40;1.55;;;14.60;93.70;;;;;;5093289;28;20044;-71
2024/03/27 11:33:24;;;;;;;7.20;1.80;;;14.70;93.60;;;;;;5093601;28;20039;-71
2024/03/27 11:35:51;;;;;;;10.63;1.95;;;14.70;93.50;;;;;;5093490;28;20080;-71
2024/03/27 11:38:20;;;;;;;8.70;1.90;;;14.70;93.50;;;;;;5093457;28;20032;-72
2024/03/27 11:40:50;;;;;;;10.43;2.22;;;14.70;93.50;;;;;;5093674;28;20115;-72
2024/03/27 11:43:17;;;;;;;13.98;2.80;;;14.70;93.60;;;;;;5093397;28;20032;-71
2024/03/27 11:45:43;;;;;;;10.27;2.75;;;14.70;93.70;;;;;;5092935;28;20032;-72
2024/03/27 11:48:08;;;;;;;8.10;2.10;;;14.70;93.90;;;;;;5093715;28;20340;-71
2024/03/27 11:50:35;;;;;;;15.50;3.53;;;14.60;93.60;;;;;;5093341;28;20036;-71
2024/03/27 11:53:00;;;;;;;9.27;1.80;;;14.60;93.80;;;;;;5093279;28;20032;-71
2024/03/27 11:55:26;;;;;;;8.50;2.00;;;14.60;93.90;;;;;;5093190;28;20058;-71
2024/03/27 11:57:52;;;;;;;13.32;2.88;;;14.60;93.80;;;;;;5092687;28;20487;-70
2024/03/27 12:00:18;;;;;;;15.48;2.50;;;14.60;93.70;;;;;;5092748;28;20115;-71
2024/03/27 12:02:44;;;;;;;10.32;2.08;;;14.70;94.00;;;;;;5092760;28;20064;-69
2024/03/27 12:05:10;;;;;;;10.35;2.38;;;14.70;93.90;;;;;;5092894;28;20028;-71
2024/03/27 12:07:36;;;;;;;10.48;2.15;;;14.60;93.90;;;;;;5092876;28;20059;-71
2024/03/27 12:10:03;;;;;;;11.20;2.40;;;14.60;93.80;;;;;;5092728;28;20111;-71
2024/03/27 12:12:30;;;;;;;11.35;2.65;;;14.60;94.00;;;;;;5092785;28;20102;-71
2024/03/27 12:14:57;;;;;;;13.30;3.08;;;14.60;94.00;;;;;;5092912;28;20031;-71
2024/03/27 12:17:29;;;;;;;9.90;2.47;;;14.60;93.90;;;;;;5092900;28;20035;-71
2024/03/27 12:19:55;;;;;;;11.45;2.97;;;14.70;93.80;;;;;;5092647;28;20044;-71
2024/03/27 12:22:21;;;;;;;11.95;1.80;;;14.70;93.70;;;;;;5092645;28;20468;-71
2024/03/27 12:24:47;;;;;;;12.70;3.40;;;14.90;93.40;;;;;;5092670;28;20028;-72
2024/03/27 12:27:17;;;;;;;12.57;2.50;;;14.80;92.90;;;;;;5092678;28;20032;-72
2024/03/27 12:29:43;;;;;;;15.90;2.92;;;14.90;93.00;;;;;;5092892;28;20024;-71